Time;durP1;ratioP1;P1;durP2;ratioP2;P2;SDS_P1;SDS_P2;PMS_P1;PMS_P2;Temp;Humidity;BMP_temperature;BMP_pressure;BME280_temperature;BME280_humidity;BME280_pressure;Samples;Min_cycle;Max_cycle;Signal;HPM_P1;HPM_P2
2023/10/21 00:00:55;;;;;;;12.53;6.50;;;;;;;13.51;100.00;100652.44;2072878;28;20197;-67
2023/10/21 00:01:56;;;;;;;7.60;6.10;;;;;;;13.48;100.00;100653.34;2071914;28;20221;-68
2023/10/21 00:02:56;;;;;;;8.60;6.43;;;;;;;13.50;100.00;100659.25;2073043;28;20274;-67
2023/10/21 00:03:57;;;;;;;10.83;6.53;;;;;;;13.50;100.00;100650.91;2068904;28;20256;-67
2023/10/21 00:04:57;;;;;;;10.73;6.97;;;;;;;13.48;100.00;100652.56;2068009;28;20275;-67
2023/10/21 00:05:58;;;;;;;8.67;6.07;;;;;;;13.41;100.00;100653.59;2072766;28;20186;-67
2023/10/21 00:06:58;;;;;;;11.43;6.53;;;;;;;13.36;100.00;100661.72;2072268;28;20251;-67
2023/10/21 00:07:58;;;;;;;12.77;6.97;;;;;;;13.37;100.00;100663.31;2065089;28;20202;-67
2023/10/21 00:08:59;;;;;;;8.83;5.70;;;;;;;13.22;100.00;100643.50;2077090;28;20216;-67
2023/10/21 00:09:59;;;;;;;10.87;6.57;;;;;;;13.13;100.00;100625.97;2073037;28;20204;-67
2023/10/21 00:11:01;;;;;;;8.77;5.93;;;;;;;13.33;100.00;100651.50;2072662;28;20652;-67
2023/10/21 00:12:02;;;;;;;11.60;6.90;;;;;;;13.33;100.00;100655.06;2063998;28;20190;-67
2023/10/21 00:13:03;;;;;;;10.13;7.03;;;;;;;13.28;100.00;100660.44;2060650;28;20541;-67
2023/10/21 00:14:03;;;;;;;11.70;7.30;;;;;;;13.28;100.00;100663.22;2066820;28;20220;-67
2023/10/21 00:15:07;;;;;;;10.13;6.87;;;;;;;13.28;100.00;100660.44;2072764;28;20730;-67
2023/10/21 00:16:08;;;;;;;9.20;6.90;;;;;;;13.31;100.00;100671.44;2072296;28;20186;-67
2023/10/21 00:17:08;;;;;;;11.07;6.97;;;;;;;13.29;100.00;100667.53;2072929;28;20438;-67
2023/10/21 00:18:09;;;;;;;9.57;6.80;;;;;;;12.83;100.00;100591.19;2073090;28;20221;-67
2023/10/21 00:19:10;;;;;;;12.03;7.83;;;;;;;13.27;100.00;100658.88;2072374;28;20585;-67
2023/10/21 00:20:12;;;;;;;12.97;7.63;;;;;;;13.27;100.00;100665.22;2067873;28;20626;-68
2023/10/21 00:21:12;;;;;;;8.70;6.17;;;;;;;13.27;100.00;100659.63;2068321;28;20800;-68
2023/10/21 00:22:13;;;;;;;11.90;7.27;;;;;;;13.27;100.00;100670.00;2072788;28;20967;-68
2023/10/21 00:23:13;;;;;;;10.33;6.70;;;;;;;13.25;100.00;100673.25;2072904;28;20673;-68
2023/10/21 00:24:14;;;;;;;10.70;6.23;;;;;;;13.23;100.00;100672.91;2073018;28;20181;-68
2023/10/21 00:25:14;;;;;;;11.13;7.13;;;;;;;13.22;100.00;100670.59;2064486;28;20217;-68
2023/10/21 00:26:15;;;;;;;9.90;6.80;;;;;;;13.23;100.00;100666.56;2070903;28;20257;-67
2023/10/21 00:27:16;;;;;;;8.00;6.33;;;;;;;13.21;100.00;100669.03;2074094;28;20208;-67
2023/10/21 00:28:16;;;;;;;9.43;5.83;;;;;;;13.17;100.00;100669.13;2072825;28;20972;-67
2023/10/21 00:29:17;;;;;;;10.30;7.00;;;;;;;13.14;100.00;100669.25;2072487;28;20232;-67
2023/10/21 00:30:18;;;;;;;8.83;6.50;;;;;;;12.97;100.00;100653.94;2069866;28;20816;-67
2023/10/21 00:31:19;;;;;;;10.33;6.80;;;;;;;13.14;100.00;100674.81;2067295;28;20249;-67
2023/10/21 00:32:19;;;;;;;10.77;6.97;;;;;;;13.15;100.00;100684.72;2076640;28;20189;-67
2023/10/21 00:33:19;;;;;;;9.17;6.70;;;;;;;13.13;100.00;100676.06;2073316;28;20180;-67
2023/10/21 00:34:20;;;;;;;9.80;7.10;;;;;;;13.12;100.00;100674.50;2079596;28;20268;-67
2023/10/21 00:35:20;;;;;;;10.70;7.07;;;;;;;13.15;100.00;100673.59;2074694;28;20363;-67
2023/10/21 00:36:21;;;;;;;11.30;6.70;;;;;;;13.15;100.00;100684.72;2072740;28;20255;-67
2023/10/21 00:37:21;;;;;;;10.13;6.60;;;;;;;13.14;100.00;100672.81;2072372;28;20197;-67
2023/10/21 00:38:22;;;;;;;13.40;6.93;;;;;;;12.98;100.00;100647.16;2072600;28;20209;-67
2023/10/21 00:39:22;;;;;;;9.27;7.07;;;;;;;13.16;100.00;100678.72;2072507;28;20196;-68
2023/10/21 00:40:23;;;;;;;9.77;6.80;;;;;;;12.98;100.00;100650.72;2072463;28;20185;-68
2023/10/21 00:41:24;;;;;;;10.23;6.73;;;;;;;13.11;100.00;100682.06;2073160;28;20230;-67
2023/10/21 00:42:24;;;;;;;9.83;7.07;;;;;;;13.11;100.00;100682.06;2065344;28;20577;-67
2023/10/21 00:43:32;;;;;;;12.83;7.07;;;;;;;13.13;100.00;100681.63;2077030;28;20208;-67
2023/10/21 00:44:33;;;;;;;7.37;5.40;;;;;;;12.82;100.00;100641.69;2074389;28;20433;-67
2023/10/21 00:45:33;;;;;;;11.23;6.77;;;;;;;13.13;100.00;100682.41;2072713;28;20460;-67
2023/10/21 00:46:34;;;;;;;8.73;6.27;;;;;;;13.13;100.00;100690.75;2072695;28;20199;-67
2023/10/21 00:47:34;;;;;;;8.77;6.43;;;;;;;13.14;100.00;100689.53;2072269;28;20182;-67
2023/10/21 00:48:36;;;;;;;10.57;6.87;;;;;;;13.13;100.00;100690.75;2072065;28;20177;-67
2023/10/21 00:49:37;;;;;;;10.10;7.00;;;;;;;13.05;100.00;100677.50;2072429;28;20568;-67
2023/10/21 00:50:38;;;;;;;11.93;6.70;;;;;;;12.90;100.00;100654.91;2073100;28;20438;-67
2023/10/21 00:51:40;;;;;;;8.13;6.17;;;;;;;13.15;100.00;100685.50;2071832;28;20483;-67
2023/10/21 00:52:50;;;;;;;9.10;6.27;;;;;;;13.18;100.00;100692.97;2072574;28;20192;-67
2023/10/21 00:53:51;;;;;;;10.37;6.93;;;;;;;13.17;100.00;100688.59;2073069;28;20436;-67
2023/10/21 00:54:53;;;;;;;12.23;7.10;;;;;;;13.17;100.00;100677.47;2072606;28;20475;-68
2023/10/21 00:55:53;;;;;;;9.40;6.70;;;;;;;13.18;100.00;100681.06;2068357;28;20502;-68
2023/10/21 00:56:54;;;;;;;8.13;5.97;;;;;;;13.15;100.00;100679.94;2064453;28;20501;-68
2023/10/21 00:57:55;;;;;;;9.93;6.70;;;;;;;13.19;100.00;100694.53;2066105;28;20233;-67
2023/10/21 00:58:56;;;;;;;8.93;5.97;;;;;;;12.60;100.00;100602.66;2062528;28;20201;-68
2023/10/21 00:59:56;;;;;;;11.07;6.50;;;;;;;13.17;100.00;100698.97;2064050;28;20213;-67
2023/10/21 01:01:06;;;;;;;10.63;6.67;;;;;;;13.15;100.00;100701.41;2080304;28;20203;-68
2023/10/21 01:02:06;;;;;;;9.93;6.17;;;;;;;13.15;100.00;100701.41;2072410;28;20565;-68
2023/10/21 01:03:07;;;;;;;7.47;5.70;;;;;;;13.10;100.00;100699.97;2072510;28;20448;-67
2023/10/21 01:04:08;;;;;;;9.20;5.77;;;;;;;13.05;100.00;100686.63;2072419;28;20200;-68
2023/10/21 01:05:09;;;;;;;7.93;6.00;;;;;;;13.12;100.00;100703.09;2072314;28;20593;-68
2023/10/21 01:06:10;;;;;;;9.53;6.27;;;;;;;12.95;100.00;100676.59;2072576;28;20474;-68
2023/10/21 01:07:17;;;;;;;9.53;6.47;;;;;;;13.06;100.00;100693.00;2072121;28;20559;-68
2023/10/21 01:08:17;;;;;;;8.53;6.13;;;;;;;12.67;100.00;100646.16;2063470;28;20190;-68
2023/10/21 01:09:18;;;;;;;9.67;5.60;;;;;;;12.91;100.00;100687.06;2063275;28;20497;-68
2023/10/21 01:10:18;;;;;;;8.47;5.40;;;;;;;12.88;100.00;100693.53;2072827;28;20191;-68
2023/10/21 01:11:18;;;;;;;12.83;6.50;;;;;;;12.88;100.00;100699.09;2072599;28;20267;-67
2023/10/21 01:12:19;;;;;;;9.57;6.53;;;;;;;12.86;100.00;100709.88;2072231;28;20202;-67
2023/10/21 01:13:19;;;;;;;11.93;6.70;;;;;;;12.85;100.00;100705.53;2071883;28;20200;-67
2023/10/21 01:14:20;;;;;;;10.40;6.43;;;;;;;12.81;100.00;100692.97;2072201;28;20220;-67
2023/10/21 01:15:20;;;;;;;9.63;6.57;;;;;;;12.18;100.00;100597.66;2068857;28;20190;-67
2023/10/21 01:16:21;;;;;;;9.60;6.33;;;;;;;12.79;100.00;100690.63;2066188;28;20183;-67
2023/10/21 01:17:21;;;;;;;8.90;6.20;;;;;;;12.79;100.00;100698.19;2072125;28;20170;-68
2023/10/21 01:18:24;;;;;;;10.97;6.60;;;;;;;12.77;100.00;100693.09;2072816;28;20181;-68
2023/10/21 01:19:25;;;;;;;7.77;5.87;;;;;;;12.76;100.00;100687.97;2064612;28;20197;-67
2023/10/21 01:20:26;;;;;;;8.37;6.30;;;;;;;12.77;100.00;100689.53;2071678;28;20439;-67
2023/10/21 01:21:26;;;;;;;8.27;6.43;;;;;;;12.76;100.00;100693.53;2066003;28;20448;-67
2023/10/21 01:22:27;;;;;;;9.43;6.13;;;;;;;12.74;100.00;100688.41;2069187;28;20197;-67
2023/10/21 01:23:28;;;;;;;10.30;5.87;;;;;;;12.74;100.00;100682.84;2075727;28;20232;-67
2023/10/21 01:24:29;;;;;;;11.13;6.40;;;;;;;12.74;100.00;100682.84;2077908;28;20199;-68
2023/10/21 01:25:29;;;;;;;11.33;6.73;;;;;;;12.62;100.00;100666.97;2073480;28;20423;-67
2023/10/21 01:26:30;;;;;;;10.60;6.07;;;;;;;12.02;100.00;100575.53;2080145;28;20256;-67
2023/10/21 01:27:30;;;;;;;11.27;6.23;;;;;;;12.73;100.00;100691.63;2071692;28;20292;-68
2023/10/21 01:28:32;;;;;;;10.73;6.20;;;;;;;12.71;100.00;100685.75;2071834;28;20687;-68
2023/10/21 01:29:33;;;;;;;6.97;5.47;;;;;;;12.64;100.00;100689.53;2072564;28;20548;-68
2023/10/21 01:30:34;;;;;;;9.90;6.67;;;;;;;12.61;100.00;100695.97;2072290;28;20483;-68
2023/10/21 01:31:34;;;;;;;8.60;6.20;;;;;;;12.61;100.00;100695.97;2063351;28;20233;-68
2023/10/21 01:32:35;;;;;;;9.10;6.43;;;;;;;12.48;100.00;100669.38;2063532;28;20980;-67
2023/10/21 01:33:35;;;;;;;7.70;6.20;;;;;;;12.65;100.00;100701.44;2072480;28;20646;-67
2023/10/21 01:34:36;;;;;;;8.00;6.23;;;;;;;12.18;100.00;100608.78;2072207;28;20312;-67
2023/10/21 01:35:36;;;;;;;8.33;6.13;;;;;;;12.67;100.00;100682.28;2080922;28;20185;-67
2023/10/21 01:36:36;;;;;;;11.27;7.03;;;;;;;12.59;100.00;100667.03;2073009;28;20797;-67
2023/10/21 01:37:37;;;;;;;9.10;6.13;;;;;;;12.45;100.00;100650.81;2071860;28;20331;-67
2023/10/21 01:38:38;;;;;;;11.83;6.27;;;;;;;12.62;100.00;100671.72;2071964;28;20236;-67
2023/10/21 01:39:39;;;;;;;9.27;6.37;;;;;;;12.67;100.00;100679.50;2063188;28;20599;-67
2023/10/21 01:40:39;;;;;;;10.30;6.37;;;;;;;12.63;100.00;100687.19;2063393;28;20484;-67
2023/10/21 01:41:40;;;;;;;9.07;5.90;;;;;;;12.64;100.00;100697.84;2071517;28;20185;-67
2023/10/21 01:42:41;;;;;;;9.77;6.33;;;;;;;12.66;100.00;100705.75;2072430;28;20184;-67
2023/10/21 01:43:41;;;;;;;8.17;5.47;;;;;;;12.67;100.00;100712.88;2072704;28;20570;-67
2023/10/21 01:44:42;;;;;;;9.57;6.20;;;;;;;12.66;100.00;100706.53;2072404;28;20526;-67
2023/10/21 01:45:42;;;;;;;8.93;5.73;;;;;;;12.68;100.00;100711.66;2072418;28;20204;-67
2023/10/21 01:46:43;;;;;;;10.20;6.33;;;;;;;12.64;100.00;100713.75;2072449;28;20182;-67
2023/10/21 01:47:43;;;;;;;8.63;5.83;;;;;;;12.63;100.00;100707.44;2071727;28;20192;-67
2023/10/21 01:48:44;;;;;;;8.83;5.90;;;;;;;12.62;100.00;100711.44;2068517;28;20259;-67
2023/10/21 01:49:44;;;;;;;8.60;6.10;;;;;;;12.61;100.00;100714.66;2065813;28;20654;-68
2023/10/21 01:50:45;;;;;;;7.57;5.60;;;;;;;12.60;100.00;100707.53;2072191;28;20663;-67
2023/10/21 01:51:45;;;;;;;7.97;5.60;;;;;;;12.60;100.00;100701.97;2072180;28;20258;-67
2023/10/21 01:52:46;;;;;;;12.13;5.80;;;;;;;12.52;100.00;100690.31;2072005;28;20226;-67
2023/10/21 01:53:46;;;;;;;8.17;5.77;;;;;;;12.54;100.00;100700.97;2072530;28;20195;-67
2023/10/21 01:54:47;;;;;;;9.93;6.33;;;;;;;12.48;100.00;100705.50;2072355;28;20193;-67
2023/10/21 01:55:48;;;;;;;9.07;5.90;;;;;;;12.49;100.00;100707.06;2071917;28;20615;-67
2023/10/21 01:56:48;;;;;;;9.60;5.67;;;;;;;12.49;100.00;100713.41;2072096;28;20191;-67
2023/10/21 01:57:49;;;;;;;11.53;6.60;;;;;;;12.51;100.00;100710.19;2071877;28;20465;-67
2023/10/21 01:58:49;;;;;;;8.60;5.80;;;;;;;12.48;100.00;100711.84;2071218;28;20192;-67
2023/10/21 01:59:50;;;;;;;7.43;5.37;;;;;;;12.48;100.00;100708.28;2064512;28;20202;-67
2023/10/21 02:00:50;;;;;;;9.37;5.73;;;;;;;12.49;100.00;100709.84;2071361;28;20196;-67
2023/10/21 02:01:51;;;;;;;10.63;5.67;;;;;;;12.49;100.00;100713.41;2072130;28;20193;-67
2023/10/21 02:02:54;;;;;;;8.07;6.00;;;;;;;12.48;100.00;100731.31;2072353;28;20247;-67
2023/10/21 02:03:55;;;;;;;7.57;5.53;;;;;;;12.48;100.00;100722.19;2076534;28;20665;-67
2023/10/21 02:04:55;;;;;;;9.93;5.87;;;;;;;11.95;100.00;100643.19;2077144;28;20840;-67
2023/10/21 02:05:56;;;;;;;8.53;5.80;;;;;;;12.41;100.00;100714.84;2072021;28;20188;-67
2023/10/21 02:06:56;;;;;;;8.20;5.50;;;;;;;12.42;100.00;100719.19;2071950;28;20184;-67
2023/10/21 02:07:56;;;;;;;10.83;5.97;;;;;;;11.64;100.00;100594.91;2072159;28;20193;-67
2023/10/21 02:08:57;;;;;;;7.87;5.97;;;;;;;12.34;100.00;100709.50;2071907;28;20198;-67
2023/10/21 02:09:57;;;;;;;7.33;5.20;;;;;;;12.42;100.00;100715.63;2072044;28;20198;-67
2023/10/21 02:10:58;;;;;;;7.93;5.63;;;;;;;12.42;100.00;100715.63;2071504;28;20315;-67
2023/10/21 02:11:59;;;;;;;7.90;5.50;;;;;;;12.41;100.00;100717.63;2071791;28;20220;-67
2023/10/21 02:13:04;;;;;;;9.13;6.60;;;;;;;12.21;100.00;100683.72;2072286;28;20189;-67
2023/10/21 02:14:05;;;;;;;10.40;6.27;;;;;;;12.29;100.00;100696.16;2071812;28;20266;-67
2023/10/21 02:15:11;;;;;;;8.83;5.17;;;;;;;12.40;100.00;100718.09;2071937;28;20466;-67
2023/10/21 02:16:12;;;;;;;11.60;6.83;;;;;;;12.38;100.00;100717.72;2072235;28;20197;-67
2023/10/21 02:17:12;;;;;;;9.50;6.30;;;;;;;12.39;100.00;100724.84;2072755;28;20526;-67
2023/10/21 02:18:13;;;;;;;9.10;5.87;;;;;;;12.37;100.00;100728.06;2071294;28;20694;-67
2023/10/21 02:19:13;;;;;;;7.20;5.43;;;;;;;12.35;100.00;100724.94;2066724;28;20181;-67
2023/10/21 02:20:14;;;;;;;9.17;6.27;;;;;;;12.32;100.00;100713.94;2073622;28;20181;-67
2023/10/21 02:21:15;;;;;;;12.17;6.20;;;;;;;12.31;100.00;100720.72;2074167;28;20695;-67
2023/10/21 02:22:15;;;;;;;10.77;6.43;;;;;;;12.30;100.00;100711.59;2073304;28;21270;-67
2023/10/21 02:23:16;;;;;;;10.23;5.50;;;;;;;12.29;100.00;100718.38;2073607;28;20197;-67
2023/10/21 02:24:16;;;;;;;8.27;5.70;;;;;;;11.44;100.00;100593.50;2073667;28;20572;-67
2023/10/21 02:25:17;;;;;;;9.27;5.83;;;;;;;12.26;100.00;100727.63;2069431;28;20560;-67
2023/10/21 02:26:17;;;;;;;9.40;6.37;;;;;;;12.26;100.00;100722.06;2070522;28;20193;-68
2023/10/21 02:27:18;;;;;;;9.40;6.10;;;;;;;11.92;100.00;100682.97;2078734;28;20708;-67
2023/10/21 02:28:18;;;;;;;9.40;5.90;;;;;;;12.26;100.00;100735.16;2065981;28;20267;-67
2023/10/21 02:29:19;;;;;;;8.73;6.20;;;;;;;12.24;100.00;100735.59;2074191;28;20181;-67
2023/10/21 02:30:19;;;;;;;9.33;6.00;;;;;;;12.25;100.00;100739.94;2066402;28;20213;-67
2023/10/21 02:31:19;;;;;;;9.27;5.83;;;;;;;12.27;100.00;100736.72;2071548;28;20208;-67
2023/10/21 02:32:20;;;;;;;12.23;6.30;;;;;;;12.27;100.00;100743.06;2073477;28;20227;-67
2023/10/21 02:33:22;;;;;;;8.60;5.97;;;;;;;12.28;100.00;100738.25;2073875;28;20239;-67
2023/10/21 02:34:22;;;;;;;9.67;6.00;;;;;;;12.29;100.00;100739.84;2073601;28;20563;-67
2023/10/21 02:35:23;;;;;;;8.37;5.63;;;;;;;12.32;100.00;100750.06;2073619;28;20415;-67
2023/10/21 02:36:24;;;;;;;7.80;5.17;;;;;;;12.32;100.00;100742.53;2073738;28;20187;-68
2023/10/21 02:37:25;;;;;;;8.90;6.30;;;;;;;12.31;100.00;100752.09;2073002;28;20200;-67
2023/10/21 02:38:25;;;;;;;8.10;5.27;;;;;;;12.30;100.00;100758.06;2072457;28;20477;-67
2023/10/21 02:39:26;;;;;;;9.10;5.43;;;;;;;12.23;100.00;100749.91;2073128;28;20666;-68
2023/10/21 02:40:26;;;;;;;13.53;5.90;;;;;;;12.29;100.00;100765.63;2073595;28;20196;-67
2023/10/21 02:41:27;;;;;;;10.73;5.50;;;;;;;11.68;100.00;100664.97;2073531;28;20704;-67
2023/10/21 02:42:27;;;;;;;8.50;5.33;;;;;;;12.31;100.00;100763.19;2070575;28;20198;-67
2023/10/21 02:43:28;;;;;;;10.33;6.40;;;;;;;12.32;100.00;100763.97;2067464;28;20502;-67
2023/10/21 02:44:29;;;;;;;8.07;5.50;;;;;;;12.32;100.00;100752.84;2073946;28;20274;-67
2023/10/21 02:45:29;;;;;;;8.13;4.97;;;;;;;12.33;100.00;100763.53;2082104;28;20208;-67
2023/10/21 02:46:30;;;;;;;9.30;5.77;;;;;;;12.35;100.00;100758.28;2066799;28;20440;-67
2023/10/21 02:47:30;;;;;;;9.43;5.53;;;;;;;12.37;100.00;100755.06;2071621;28;20203;-67
2023/10/21 02:48:31;;;;;;;8.00;5.70;;;;;;;12.35;100.00;100755.50;2073270;28;20254;-67
2023/10/21 02:49:32;;;;;;;9.57;5.57;;;;;;;12.28;100.00;100755.72;2073299;28;20250;-67
2023/10/21 02:50:32;;;;;;;8.80;5.90;;;;;;;12.12;100.00;100747.47;2073553;28;20290;-68
2023/10/21 02:51:33;;;;;;;9.07;6.23;;;;;;;12.25;100.00;100767.72;2071375;28;20417;-68
2023/10/21 02:52:37;;;;;;;9.13;5.90;;;;;;;12.29;100.00;100768.41;2065327;28;20170;-68
2023/10/21 02:53:37;;;;;;;8.53;5.60;;;;;;;12.22;100.00;100759.47;2064897;28;20566;-67
2023/10/21 02:54:38;;;;;;;13.50;6.33;;;;;;;11.85;100.00;100701.81;2065939;28;20450;-67
2023/10/21 02:55:38;;;;;;;7.73;5.27;;;;;;;12.32;100.00;100770.31;2072153;28;20208;-67
2023/10/21 02:56:41;;;;;;;9.00;5.37;;;;;;;12.34;100.00;100769.88;2073515;28;20188;-67
2023/10/21 02:57:41;;;;;;;10.70;6.17;;;;;;;12.31;100.00;100754.06;2073035;28;20296;-67
2023/10/21 02:58:42;;;;;;;10.57;6.33;;;;;;;12.35;100.00;100760.31;2073258;28;20462;-67
2023/10/21 02:59:42;;;;;;;7.20;5.30;;;;;;;12.25;100.00;100753.81;2073468;28;20212;-67
2023/10/21 03:00:43;;;;;;;9.60;5.90;;;;;;;12.35;100.00;100769.41;2073562;28;20220;-67
2023/10/21 03:01:43;;;;;;;8.50;5.47;;;;;;;12.34;100.00;100769.88;2073340;28;20231;-67
2023/10/21 03:02:44;;;;;;;10.37;5.67;;;;;;;12.35;100.00;100779.75;2073883;28;20261;-67
2023/10/21 03:03:48;;;;;;;10.57;6.00;;;;;;;12.14;100.00;100744.25;2073603;28;20191;-67
2023/10/21 03:04:48;;;;;;;8.27;5.73;;;;;;;12.33;100.00;100782.19;2073411;28;20468;-67
2023/10/21 03:05:48;;;;;;;8.57;5.27;;;;;;;12.30;100.00;100771.97;2073480;28;20447;-67
2023/10/21 03:06:49;;;;;;;11.33;6.03;;;;;;;12.28;100.00;100777.97;2073110;28;20209;-67
2023/10/21 03:07:50;;;;;;;9.10;5.67;;;;;;;12.29;100.00;100773.94;2069439;28;20187;-67
2023/10/21 03:08:50;;;;;;;7.43;5.40;;;;;;;12.31;100.00;100774.31;2064276;28;20727;-67
2023/10/21 03:09:50;;;;;;;9.47;5.80;;;;;;;12.31;100.00;100773.53;2064510;28;20205;-67
2023/10/21 03:10:51;;;;;;;12.03;5.87;;;;;;;12.32;100.00;100777.84;2073647;28;20188;-67
2023/10/21 03:11:51;;;;;;;8.30;5.53;;;;;;;12.35;100.00;100776.97;2073000;28;20559;-67
2023/10/21 03:12:52;;;;;;;10.13;5.83;;;;;;;12.36;100.00;100775.75;2073484;28;20315;-67
2023/10/21 03:13:52;;;;;;;9.93;5.73;;;;;;;12.37;100.00;100772.53;2073564;28;20283;-67
2023/10/21 03:14:53;;;;;;;11.67;6.60;;;;;;;12.37;100.00;100772.53;2073400;28;20203;-67
2023/10/21 03:15:53;;;;;;;8.27;5.53;;;;;;;12.39;100.00;100789.53;2073436;28;20549;-67
2023/10/21 03:16:54;;;;;;;7.60;5.53;;;;;;;12.39;100.00;100788.75;2073151;28;20208;-67
2023/10/21 03:17:54;;;;;;;12.43;6.73;;;;;;;12.39;100.00;100774.84;2072853;28;20208;-67
2023/10/21 03:18:54;;;;;;;8.40;5.50;;;;;;;12.38;100.00;100776.09;2073556;28;20176;-67
2023/10/21 03:19:55;;;;;;;8.93;5.53;;;;;;;12.35;100.00;100774.22;2073390;28;20200;-67
2023/10/21 03:20:56;;;;;;;7.83;5.40;;;;;;;12.33;100.00;100785.75;2072907;28;20203;-67
2023/10/21 03:21:57;;;;;;;8.67;5.50;;;;;;;12.27;100.00;100783.94;2072735;28;20674;-67
2023/10/21 03:22:57;;;;;;;7.37;4.80;;;;;;;12.21;100.00;100769.03;2073125;28;20456;-67
2023/10/21 03:23:58;;;;;;;8.07;5.67;;;;;;;12.00;100.00;100737.06;2073376;28;20750;-67
2023/10/21 03:24:58;;;;;;;7.13;4.60;;;;;;;12.30;100.00;100781.06;2073077;28;20253;-67
2023/10/21 03:26:01;;;;;;;8.77;5.53;;;;;;;12.26;100.00;100785.97;2073127;28;20182;-67
2023/10/21 03:27:02;;;;;;;10.57;5.67;;;;;;;12.23;100.00;100786.84;2073421;28;20177;-67
2023/10/21 03:28:03;;;;;;;8.20;5.57;;;;;;;12.24;100.00;100793.94;2072924;28;20952;-67
2023/10/21 03:29:03;;;;;;;7.53;5.80;;;;;;;12.28;100.00;100796.63;2073194;28;20291;-67
2023/10/21 03:30:04;;;;;;;8.87;5.40;;;;;;;12.29;100.00;100800.97;2073343;28;20200;-69
2023/10/21 03:31:05;;;;;;;8.10;5.30;;;;;;;12.30;100.00;100810.88;2068696;28;20350;-69
2023/10/21 03:32:07;;;;;;;13.20;5.40;;;;;;;12.23;100.00;100800.72;2068195;28;20446;-68
2023/10/21 03:33:07;;;;;;;7.57;5.37;;;;;;;12.16;100.00;100803.72;2073176;28;20688;-68
2023/10/21 03:34:07;;;;;;;9.67;5.90;;;;;;;12.14;100.00;100813.69;2073874;28;20812;-69
2023/10/21 03:35:09;;;;;;;8.17;5.30;;;;;;;12.14;100.00;100822.03;2081041;28;20262;-69
2023/10/21 03:36:10;;;;;;;7.97;5.40;;;;;;;12.16;100.00;100811.25;2073631;28;20174;-69
2023/10/21 03:37:10;;;;;;;8.27;6.00;;;;;;;12.16;100.00;100820.38;2072108;28;20448;-69
2023/10/21 03:38:11;;;;;;;7.47;4.93;;;;;;;12.15;100.00;100806.91;2073285;28;20642;-69
2023/10/21 03:39:12;;;;;;;6.57;5.20;;;;;;;12.06;100.00;100804.78;2072667;28;20197;-68
2023/10/21 03:40:12;;;;;;;8.20;5.50;;;;;;;12.07;100.00;100799.97;2073205;28;20287;-69
2023/10/21 03:41:13;;;;;;;9.60;5.93;;;;;;;12.12;100.00;100805.78;2073337;28;20234;-69
2023/10/21 03:42:13;;;;;;;7.83;5.03;;;;;;;12.14;100.00;100802.59;2063866;28;20187;-68
2023/10/21 03:43:14;;;;;;;10.50;6.17;;;;;;;12.11;100.00;100795.13;2064225;28;20795;-69
2023/10/21 03:44:14;;;;;;;7.00;5.07;;;;;;;12.14;100.00;100802.59;2073629;28;20214;-69
2023/10/21 03:45:15;;;;;;;7.00;4.97;;;;;;;12.15;100.00;100798.59;2073266;28;20185;-69
2023/10/21 03:46:15;;;;;;;8.53;5.60;;;;;;;12.17;100.00;100801.69;2072922;28;20471;-68
2023/10/21 03:47:16;;;;;;;8.30;5.40;;;;;;;12.18;100.00;100797.69;2072867;28;20197;-68
2023/10/21 03:48:17;;;;;;;6.67;5.13;;;;;;;12.12;100.00;100782.78;2072922;28;20189;-68
2023/10/21 03:49:17;;;;;;;6.73;5.50;;;;;;;12.15;100.00;100776.34;2072694;28;20204;-69
2023/10/21 03:50:18;;;;;;;9.20;5.10;;;;;;;12.16;100.00;100777.91;2072965;28;20185;-68
2023/10/21 03:51:19;;;;;;;11.10;6.00;;;;;;;12.16;100.00;100791.81;2072509;28;20684;-68
2023/10/21 03:52:19;;;;;;;7.37;5.33;;;;;;;12.18;100.00;100786.56;2073211;28;20801;-69
2023/10/21 03:53:20;;;;;;;8.87;5.20;;;;;;;12.10;100.00;100774.88;2073288;28;20193;-69
2023/10/21 03:54:20;;;;;;;10.17;5.60;;;;;;;12.20;100.00;100781.38;2073296;28;20185;-68
2023/10/21 03:55:21;;;;;;;5.97;4.87;;;;;;;12.18;100.00;100779.03;2072912;28;20272;-69
2023/10/21 03:56:21;;;;;;;6.83;4.77;;;;;;;12.20;100.00;100784.16;2073227;28;20637;-69
2023/10/21 03:57:22;;;;;;;7.60;5.50;;;;;;;12.21;100.00;100796.81;2072603;28;20196;-69
2023/10/21 03:58:22;;;;;;;8.17;5.10;;;;;;;12.20;100.00;100781.38;2072745;28;20303;-69
2023/10/21 03:59:23;;;;;;;8.60;5.10;;;;;;;12.09;100.00;100776.09;2072707;28;20224;-69
2023/10/21 04:00:23;;;;;;;9.37;5.10;;;;;;;11.66;100.00;100724.94;2073367;28;20184;-69
2023/10/21 04:01:24;;;;;;;6.73;4.63;;;;;;;12.00;100.00;100789.06;2073111;28;20211;-69
2023/10/21 04:02:24;;;;;;;9.10;5.43;;;;;;;12.10;100.00;100799.13;2078459;28;20258;-69
2023/10/21 04:03:26;;;;;;;8.73;5.33;;;;;;;12.11;100.00;100809.81;2076100;28;20254;-69
2023/10/21 04:04:26;;;;;;;9.87;5.50;;;;;;;12.11;100.00;100797.91;2072911;28;20239;-69
2023/10/21 04:05:27;;;;;;;8.17;5.10;;;;;;;11.75;100.00;100758.41;2072331;28;20491;-69
2023/10/21 04:06:28;;;;;;;6.13;4.50;;;;;;;12.12;100.00;100799.44;2072773;28;20184;-69
2023/10/21 04:07:29;;;;;;;8.47;5.20;;;;;;;12.12;100.00;100803.03;2072584;28;20422;-69
2023/10/21 04:08:30;;;;;;;6.83;5.00;;;;;;;12.12;100.00;100808.56;2073036;28;20765;-69
2023/10/21 04:09:30;;;;;;;7.97;4.97;;;;;;;12.14;100.00;100813.69;2072721;28;20211;-69
2023/10/21 04:10:32;;;;;;;7.03;4.80;;;;;;;11.79;100.00;100762.63;2073124;28;20457;-69
2023/10/21 04:11:32;;;;;;;10.77;4.70;;;;;;;12.11;100.00;100820.13;2067096;28;20178;-69
2023/10/21 04:12:33;;;;;;;5.73;4.53;;;;;;;11.85;100.00;100785.91;2069294;28;20484;-69
2023/10/21 04:13:34;;;;;;;6.87;5.07;;;;;;;11.98;100.00;100817.28;2069798;28;20190;-69
2023/10/21 04:14:34;;;;;;;7.77;5.53;;;;;;;12.01;100.00;100819.19;2066829;28;20753;-69
2023/10/21 04:15:35;;;;;;;8.63;5.17;;;;;;;11.99;100.00;100815.28;2072542;28;20822;-68
2023/10/21 04:16:36;;;;;;;7.93;5.20;;;;;;;12.02;100.00;100819.97;2073405;28;20185;-69
2023/10/21 04:17:39;;;;;;;6.60;4.87;;;;;;;12.04;100.00;100817.53;2072281;28;20255;-69
2023/10/21 04:18:40;;;;;;;6.03;4.67;;;;;;;12.03;100.00;100807.63;2072648;28;20195;-69
2023/10/21 04:19:40;;;;;;;6.30;4.43;;;;;;;12.02;100.00;100804.09;2072418;28;20442;-69
2023/10/21 04:20:41;;;;;;;7.07;5.23;;;;;;;12.03;100.00;100810.41;2072839;28;20190;-69
2023/10/21 04:21:41;;;;;;;5.73;4.33;;;;;;;12.02;100.00;100811.63;2072232;28;20626;-69
2023/10/21 04:22:43;;;;;;;6.77;4.77;;;;;;;12.00;100.00;100817.63;2072689;28;20175;-69
2023/10/21 04:23:43;;;;;;;7.03;4.80;;;;;;;11.39;100.00;100719.69;2072873;28;20226;-70
2023/10/21 04:24:44;;;;;;;6.57;4.73;;;;;;;11.88;100.00;100798.91;2072986;28;20553;-71
2023/10/21 04:25:44;;;;;;;7.77;5.03;;;;;;;11.78;100.00;100791.63;2073199;28;20191;-71
2023/10/21 04:26:45;;;;;;;6.73;4.97;;;;;;;11.97;100.00;100818.50;2072710;28;20283;-70
2023/10/21 04:27:45;;;;;;;6.67;4.63;;;;;;;11.98;100.00;100816.50;2072312;28;20264;-69
2023/10/21 04:28:45;;;;;;;7.37;5.07;;;;;;;11.97;100.00;100826.03;2072450;28;20192;-69
2023/10/21 04:29:46;;;;;;;7.23;4.77;;;;;;;11.81;100.00;100796.31;2072923;28;20193;-69
2023/10/21 04:30:46;;;;;;;6.07;4.67;;;;;;;11.98;100.00;100824.81;2072505;28;20205;-70
2023/10/21 04:31:47;;;;;;;7.30;4.30;;;;;;;11.92;100.00;100819.03;2072586;28;20345;-69
2023/10/21 04:32:47;;;;;;;9.47;4.57;;;;;;;11.90;100.00;100812.34;2072511;28;20185;-69
2023/10/21 04:33:49;;;;;;;15.17;5.60;;;;;;;11.94;100.00;100838.81;2072780;28;20226;-69
2023/10/21 04:34:49;;;;;;;6.97;4.80;;;;;;;11.69;100.00;100782.38;2065542;28;20716;-69
2023/10/21 04:35:50;;;;;;;6.77;4.73;;;;;;;11.95;100.00;100828.50;2069431;28;20507;-69
2023/10/21 04:36:50;;;;;;;7.27;4.80;;;;;;;11.87;100.00;100824.31;2067265;28;20675;-69
2023/10/21 04:37:51;;;;;;;5.93;4.77;;;;;;;11.92;100.00;100832.13;2067969;28;20701;-69
2023/10/21 04:38:51;;;;;;;6.77;5.10;;;;;;;11.94;100.00;100832.50;2072656;28;20240;-69